• Join FlightAware (Why Join?)
  • Login
  • US Flag 
12:32PM EDT


 

Airport Tracker/Info


-or-


 

Live Flight TrackerFlight Track Log ✈ UAL3756 ✈ 05-May-2014 ✈ KDTW - KORD

Flight Track Log - Related Links

Times and Time Zones

All times are in EDT time to prevent confusion due to time zone crossing. See the UAL3756 flight status page for this flight to view local times or setup timezone preferences in your user account.

Time Position Orientation Groundspeed Altitude Reporting Facility
EDT Latitude Longitude Course Direction KTS MPH feet Rate Location/Type
02:18PM 42.2281 -83.3533 292° West 158 182 1,400  Level Cleveland Center
02:20PM 42.2922 -83.3367 11° North 196 226 3,900 2,040 Climbing Cleveland Center
02:21PM 42.3606 -83.3211 10° North 258 297 6,100 2,520 Climbing Cleveland Center
02:22PM 42.4111 -83.3725 323° Northwest 256 295 9,200 1,800 Climbing Cleveland Center
02:23PM 42.4175 -83.4772 275° West 290 334 10,000 480 Climbing Cleveland Center
02:24PM 42.3806 -84.0297 292° West  Level FlightAware Approximate
02:24PM 42.4208 -83.6056 272° West 307 353 10,200  Level Cleveland Center
02:25PM 42.4225 -83.7197 271° West 307 353 12,400 2,160 Climbing Cleveland Center
02:26PM 42.4242 -83.8414 271° West 320 368 14,800 2,160 Climbing Cleveland Center
02:27PM 42.4258 -83.9622 271° West 322 371 16,900 1,860 Climbing Cleveland Center
02:28PM 42.4267 -84.0856 271° West 326 375 18,700 1,680 Climbing Cleveland Center
02:29PM 42.4286 -84.2392 271° West 342 394 20,400 1,560 Climbing Cleveland Center
02:30PM 42.4328 -84.3708 272° West 348 400 22,000 1,500 Climbing Cleveland Center
02:31PM 42.4361 -84.5039 272° West 350 403 23,500 1,440 Climbing Cleveland Center
02:32PM 42.4389 -84.6389 272° West 359 413 25,000 1,320 Climbing Cleveland Center
02:33PM 42.4431 -84.7925 272° West 359 413 26,300 1,080 Climbing Cleveland Center
02:34PM 42.4467 -84.9022 273° West 362 417 27,100 840 Climbing Chicago Center
02:35PM 42.4486 -85.0408 271° West 366 421 28,000 420 Climbing Chicago Center
02:36PM 42.4514 -85.1828 272° West 374 430 28,000  Level Chicago Center
02:37PM 42.4544 -85.3511 271° West 374 430 28,000  Level Chicago Center
02:38PM 42.4569 -85.4900 271° West 373 429 28,000 -180 Level Chicago Center
02:39PM 42.4603 -85.6336 272° West 374 430 27,700 -1,140 Descending Chicago Center
02:40PM 42.4614 -85.7742 271° West 377 434 25,700 -2,100 Descending Chicago Center
02:41PM 42.4636 -85.9072 271° West 362 417 23,400 -2,280 Descending Chicago Center
02:42PM 42.4661 -86.0414 271° West 360 414 21,000 -1,680 Descending Chicago Center
02:43PM 42.4656 -86.1972 270° West 342 394 20,000 -540 Descending Chicago Center
02:44PM 42.4642 -86.3306 269° West 347 399 20,000  Level Chicago Center
02:45PM 42.4625 -86.4633 269° West 349 402 20,000  Level Chicago Center
02:46PM 42.4611 -86.5967 269° West 352 405 20,000 -900 Level Chicago Center
02:47PM 42.4619 -86.7439 270° West 350 403 18,200 -1,800 Descending Chicago Center
02:49PM 42.4567 -86.8583 266° West 349 402 16,300 -1,920 Descending Chicago Center
02:50PM 42.4417 -86.9808 261° West 335 386 14,300 -1,920 Descending Chicago Center
02:51PM 42.4214 -87.1208 259° West 317 365 12,400 -1,560 Descending Chicago Center
02:52PM 42.4072 -87.2425 261° West 325 374 11,100 -720 Descending Chicago Center
02:53PM 42.3853 -87.3608 256° West 325 374 11,000 -360 Descending Chicago Center
02:54PM 42.3525 -87.4844 250° West 323 372 10,400 -720 Descending Chicago Center
02:55PM 42.3072 -87.5672 234° Southwest 281 323 9,500 -1,080 Descending Chicago Center
02:56PM 42.2411 -87.6389 219° Southwest 281 323 8,200 -1,140 Descending Chicago Center
02:57PM 42.1769 -87.7011 216° Southwest 283 326 7,200 -600 Descending Chicago Center
02:58PM 42.0969 -87.7306 195° South 272 313 7,000 -120 Descending Chicago Center
02:59PM 42.0375 -87.7489 193° South 223 257 7,000  Level Chicago Center
03:00PM 41.9764 -87.7692 194° South 213 245 7,000  Level Chicago Center
03:01PM 41.9178 -87.7886 194° South 215 247 7,000  Level Chicago Center
03:02PM 41.8936 -87.8536 243° Southwest 196 226 7,000  Level Chicago Center
03:03PM 41.8872 -87.9267 263° West 197 227 7,000  Level Chicago Center
03:04PM 41.8803 -87.9986 263° West 197 227 7,000 -540 Level Chicago Center
03:05PM 41.8742 -88.0769 264° West 195 224 5,900 -1,020 Descending Chicago Center
03:06PM 41.8806 -88.1464 277° West 194 223 4,900 -960 Descending Chicago Center
03:07PM 41.8981 -88.2233 287° West 201 231 4,000 -480 Descending Chicago Center
03:08PM 41.9164 -88.2972 288° West 208 239 4,000  Level Chicago Center
03:09PM 41.9628 -88.2733 21° North 192 221 4,000  Level Chicago Center
03:10PM 41.9642 -88.2092 88° East 174 200 4,000 -180 Level Chicago Center
03:11PM 41.9639 -88.1383 90° East 175 201 3,700 -540 Descending Chicago Center
03:12PM 41.9633 -88.0789 91° East 166 191 3,000 -780 Descending Chicago Center
03:13PM 41.9642 -88.0189 89° East 164 189 2,100 -900 Descending Chicago Center
03:14PM 41.9650 -87.9656 89° East 135 155 1,200 -660 Descending Chicago Center
03:15PM 41.9650 -87.9169 90° East 128 147 800 -420 Descending Chicago Center